KILN/ILN METAR and TAF weather

Enter ICAO airport designator
Station Type Date Time Source
KILN METAR 2018/12/15 03:54 UTC NOAA

KILN 150354Z AUTO 05012KT 7SM OVC005 08/07 A3002 RMK AO2 RAE03 SLP174 P0000 T00780067


Station Type Date Time Source
KILN Decoded METAR 2018/12/15 03:54 UTC NOAA

WILMINGTON INDUSTRIAL AIRPORT , OH, United States (KILN) 39-26N 083-47W 332M
Dec 14, 2018 - 10:54 PM EST / 2018.12.15 0354 UTC
Wind: from the NE (050 degrees) at 14 MPH (12 KT):0
Visibility: 7 mile(s):0
Sky conditions: overcast
Precipitation last hour: A trace
Temperature: 46.0 F (7.8 C)
Dew Point: 44.1 F (6.7 C)
Relative Humidity: 92%
Pressure (altimeter): 30.02 in. Hg (1016 hPa)
ob: KILN 150354Z AUTO 05012KT 7SM OVC005 08/07 A3002 RMK AO2 RAE03 SLP174 P0000 T00780067
cycle: 4

Station Type Date Time Source
KILN TAF 2018/12/15 03:21 UTC NOAA

TAF
AMD KILN 150318Z 1503/1524 07006KT P6SM VCSH BKN008 OVC050
FM150500 06007KT 5SM -RA OVC012
FM151000 05009KT 4SM -RA OVC010
FM151500 05010KT 2SM RA OVC007
FM151900 05008KT 3SM -RA OVC009


Example: see airport list